Time;durP1;ratioP1;P1;durP2;ratioP2;P2;SDS_P1;SDS_P2;PMS_P1;PMS_P2;Temp;Humidity;BMP_temperature;BMP_pressure;BME280_temperature;BME280_humidity;BME280_pressure;Samples;Min_cycle;Max_cycle;Signal;HPM_P1;HPM_P2
2021/12/03 00:01:48;;;;;;;4.50;4.10;;;2.50;63.40;;;;;;4975513;28;20265;-89
2021/12/03 00:04:13;;;;;;;4.90;4.60;;;2.50;65.40;;;;;;4974935;28;20213;-88
2021/12/03 00:06:39;;;;;;;6.43;4.43;;;2.50;65.00;;;;;;4974857;28;20262;-89
2021/12/03 00:09:06;;;;;;;5.17;4.73;;;2.50;65.40;;;;;;4990549;28;20583;-89
2021/12/03 00:11:32;;;;;;;5.13;4.68;;;2.40;64.30;;;;;;4973917;28;20328;-88
2021/12/03 00:13:57;;;;;;;5.87;5.37;;;2.40;65.30;;;;;;4974020;28;20194;-88
2021/12/03 00:16:23;;;;;;;6.40;5.80;;;2.50;65.40;;;;;;4974725;28;20183;-88
2021/12/03 00:18:49;;;;;;;5.50;5.10;;;2.40;65.40;;;;;;4973831;28;20178;-88
2021/12/03 00:21:17;;;;;;;5.70;5.20;;;2.40;65.90;;;;;;4974140;28;20182;-90
2021/12/03 00:23:42;;;;;;;6.17;5.57;;;2.40;67.20;;;;;;4973956;28;20437;-89
2021/12/03 00:26:09;;;;;;;8.57;6.00;;;2.40;65.80;;;;;;4973578;28;20461;-89
2021/12/03 00:28:35;;;;;;;6.17;5.60;;;2.30;65.20;;;;;;4973970;28;20194;-89
2021/12/03 00:31:02;;;;;;;6.03;5.47;;;2.30;67.90;;;;;;4973363;28;20891;-87
2021/12/03 00:33:30;;;;;;;7.30;6.43;;;2.30;69.90;;;;;;4973565;28;20410;-89
2021/12/03 00:35:56;;;;;;;5.83;5.30;;;2.30;69.10;;;;;;4973281;28;20441;-89
2021/12/03 00:38:22;;;;;;;8.40;6.18;;;2.30;67.70;;;;;;4973910;28;20430;-89
2021/12/03 00:40:48;;;;;;;6.13;5.63;;;2.20;66.10;;;;;;4973626;28;20187;-89
2021/12/03 00:43:14;;;;;;;7.13;6.20;;;2.30;67.60;;;;;;4973223;28;20436;-89
2021/12/03 00:45:42;;;;;;;5.90;5.30;;;2.20;67.00;;;;;;4974146;28;20528;-89
2021/12/03 00:48:08;;;;;;;6.10;5.50;;;2.20;65.10;;;;;;4973526;28;20418;-88
2021/12/03 00:50:34;;;;;;;6.70;5.15;;;2.20;66.80;;;;;;4973699;28;20422;-88
2021/12/03 00:53:01;;;;;;;6.20;5.70;;;2.20;66.40;;;;;;4973780;28;20181;-88
2021/12/03 00:55:29;;;;;;;6.10;5.63;;;2.20;67.90;;;;;;4978865;28;20213;-89
2021/12/03 00:57:54;;;;;;;5.83;5.33;;;2.10;67.50;;;;;;4994809;28;20418;-88
2021/12/03 01:00:24;;;;;;;6.30;5.70;;;2.20;67.20;;;;;;4973356;28;20461;-88
2021/12/03 01:02:55;;;;;;;6.47;5.80;;;2.20;66.10;;;;;;4973213;28;20268;-88
2021/12/03 01:05:21;;;;;;;6.63;6.03;;;2.20;66.70;;;;;;4972898;28;20494;-88
2021/12/03 01:07:47;;;;;;;5.83;5.33;;;2.10;66.90;;;;;;4973008;28;20429;-90
2021/12/03 01:10:13;;;;;;;6.10;5.60;;;2.20;67.70;;;;;;4972308;28;20437;-88
2021/12/03 01:12:38;;;;;;;5.90;5.40;;;2.20;66.90;;;;;;4972486;28;20233;-89
2021/12/03 01:15:09;;;;;;;7.53;6.57;;;2.20;66.30;;;;;;4974416;28;20418;-90
2021/12/03 01:17:35;;;;;;;6.70;5.95;;;2.20;66.30;;;;;;4972221;28;20519;-88
2021/12/03 01:20:06;;;;;;;6.38;5.88;;;2.20;66.40;;;;;;4972470;28;20518;-89
2021/12/03 01:22:32;;;;;;;7.37;5.70;;;2.20;66.20;;;;;;4972216;28;20183;-88
2021/12/03 01:24:58;;;;;;;6.77;6.03;;;2.20;67.20;;;;;;4971988;28;20565;-88
2021/12/03 01:27:24;;;;;;;6.33;5.83;;;2.20;67.10;;;;;;4971885;28;20452;-89
2021/12/03 01:29:50;;;;;;;7.83;6.40;;;2.20;66.10;;;;;;4972367;28;20787;-89
2021/12/03 01:32:15;;;;;;;6.93;6.23;;;2.20;66.30;;;;;;4972052;28;20178;-88
2021/12/03 01:34:41;;;;;;;6.70;6.20;;;2.30;66.70;;;;;;4972712;28;20190;-88
2021/12/03 01:37:07;;;;;;;5.77;5.33;;;2.30;65.80;;;;;;4972579;28;20214;-88
2021/12/03 01:39:33;;;;;;;6.37;5.93;;;2.30;65.20;;;;;;4971733;28;20187;-89
2021/12/03 01:41:59;;;;;;;5.93;5.53;;;2.30;65.50;;;;;;4975937;28;20178;-91
2021/12/03 01:44:25;;;;;;;7.40;6.80;;;2.30;65.20;;;;;;4976199;28;20930;-90
2021/12/03 01:46:51;;;;;;;7.10;6.50;;;2.30;65.20;;;;;;4975805;28;20970;-90
2021/12/03 01:49:17;;;;;;;6.17;5.67;;;2.20;65.50;;;;;;4973552;28;20414;-89
2021/12/03 01:51:43;;;;;;;6.60;6.10;;;2.30;66.00;;;;;;4972529;28;20466;-89
2021/12/03 01:54:09;;;;;;;6.57;6.00;;;2.30;65.20;;;;;;4970400;28;20223;-87
2021/12/03 01:56:37;;;;;;;6.70;6.10;;;2.30;65.20;;;;;;4970629;28;20876;-88
2021/12/03 01:59:03;;;;;;;6.57;6.07;;;2.30;65.90;;;;;;4970872;28;20237;-90
2021/12/03 02:01:29;;;;;;;7.30;6.60;;;2.30;65.40;;;;;;4970823;28;20181;-89
2021/12/03 02:03:57;;;;;;;8.20;7.40;;;2.20;65.20;;;;;;4970875;28;20785;-89
2021/12/03 02:06:25;;;;;;;7.10;6.50;;;2.20;65.20;;;;;;4970921;28;20508;-90
2021/12/03 02:08:52;;;;;;;6.17;5.67;;;2.20;64.70;;;;;;4970030;28;20510;-89
2021/12/03 02:11:18;;;;;;;7.83;7.03;;;2.20;66.40;;;;;;4970427;28;20452;-90
2021/12/03 02:13:44;;;;;;;6.45;5.95;;;2.10;64.80;;;;;;4970620;28;20517;-89
2021/12/03 02:16:11;;;;;;;6.77;6.10;;;2.20;63.90;;;;;;4970568;28;20229;-89
2021/12/03 02:18:37;;;;;;;7.73;6.93;;;2.10;64.40;;;;;;4971364;28;20414;-89
2021/12/03 02:21:04;;;;;;;6.40;5.90;;;2.10;65.10;;;;;;4970570;28;20969;-88
2021/12/03 02:23:30;;;;;;;6.83;6.33;;;2.10;65.90;;;;;;4970470;28;20192;-90
2021/12/03 02:25:56;;;;;;;8.77;7.90;;;2.00;64.90;;;;;;4970344;28;20465;-90
2021/12/03 02:28:25;;;;;;;7.40;6.67;;;2.00;64.40;;;;;;4970682;28;20789;-88
2021/12/03 02:30:51;;;;;;;7.10;6.40;;;2.00;64.90;;;;;;4971638;28;20426;-90
2021/12/03 02:33:18;;;;;;;7.50;6.90;;;2.00;64.10;;;;;;4972662;28;20639;-88
2021/12/03 02:35:44;;;;;;;8.10;7.30;;;2.10;64.70;;;;;;4971859;28;20465;-88
2021/12/03 02:38:12;;;;;;;9.07;6.87;;;2.10;64.40;;;;;;4971651;28;20182;-89
2021/12/03 02:40:39;;;;;;;7.17;6.67;;;2.00;64.90;;;;;;4971271;28;20479;-89
2021/12/03 02:43:06;;;;;;;6.95;6.22;;;1.90;64.80;;;;;;4971998;28;20446;-89
2021/12/03 02:45:32;;;;;;;9.13;7.07;;;2.00;64.90;;;;;;4970100;28;20198;-90
2021/12/03 02:48:03;;;;;;;7.00;6.40;;;1.90;64.80;;;;;;4970970;28;20188;-89
2021/12/03 02:50:29;;;;;;;7.65;7.05;;;1.90;64.80;;;;;;4970461;28;20429;-87
2021/12/03 02:52:55;;;;;;;7.40;6.70;;;1.90;64.80;;;;;;4969966;28;20179;-90
2021/12/03 02:55:22;;;;;;;7.25;6.65;;;1.80;65.50;;;;;;4969869;28;20432;-90
2021/12/03 02:57:47;;;;;;;6.13;5.63;;;1.90;65.20;;;;;;4970306;28;20229;-91
2021/12/03 03:00:16;;;;;;;7.53;6.93;;;1.90;66.40;;;;;;4969681;28;20428;-89
2021/12/03 03:02:43;;;;;;;6.67;6.07;;;1.90;64.80;;;;;;4969501;28;20701;-89
2021/12/03 03:05:10;;;;;;;7.20;6.60;;;1.90;64.40;;;;;;4972064;28;20560;-89
2021/12/03 03:07:36;;;;;;;7.17;6.57;;;1.90;64.90;;;;;;4975612;28;20418;-89
2021/12/03 03:10:04;;;;;;;7.63;7.03;;;1.80;66.00;;;;;;4974564;28;20426;-88
2021/12/03 03:12:30;;;;;;;6.57;6.00;;;1.90;64.80;;;;;;4974294;28;20186;-90
2021/12/03 03:14:58;;;;;;;7.27;6.67;;;1.90;64.80;;;;;;4973471;28;20418;-88
2021/12/03 03:17:25;;;;;;;7.40;6.80;;;1.90;65.50;;;;;;4973933;28;20262;-89
2021/12/03 03:19:52;;;;;;;8.17;7.40;;;1.90;66.10;;;;;;4973511;28;20452;-89
2021/12/03 03:22:19;;;;;;;7.10;6.60;;;1.90;65.20;;;;;;4974581;28;20410;-90
2021/12/03 03:24:45;;;;;;;7.60;6.80;;;1.90;65.30;;;;;;4974759;28;20416;-89
2021/12/03 03:27:13;;;;;;;7.50;6.70;;;1.90;65.60;;;;;;4973397;28;20414;-90
2021/12/03 03:29:39;;;;;;;7.27;6.57;;;1.90;66.30;;;;;;4973671;28;20596;-89
2021/12/03 03:32:05;;;;;;;7.63;6.93;;;1.90;65.30;;;;;;4976383;28;20515;-89
2021/12/03 03:34:31;;;;;;;7.17;6.43;;;2.00;65.00;;;;;;4973376;28;20588;-89
2021/12/03 03:36:57;;;;;;;7.73;7.03;;;2.00;64.90;;;;;;4972805;28;20429;-90
2021/12/03 03:39:22;;;;;;;7.20;6.67;;;2.00;66.00;;;;;;4973052;28;20237;-89
2021/12/03 03:41:48;;;;;;;6.33;5.93;;;2.10;64.60;;;;;;4973418;28;20178;-88
2021/12/03 03:44:17;;;;;;;9.43;8.00;;;2.10;64.40;;;;;;4973088;28;20591;-88
2021/12/03 03:46:49;;;;;;;6.53;6.03;;;2.10;65.00;;;;;;4973630;28;20568;-90
2021/12/03 03:49:15;;;;;;;7.30;6.70;;;2.10;64.30;;;;;;4973405;28;20560;-91
2021/12/03 03:51:40;;;;;;;6.93;6.23;;;2.20;63.10;;;;;;4972710;28;20457;-90
2021/12/03 03:54:06;;;;;;;7.50;6.90;;;2.10;62.30;;;;;;4973367;28;20894;-88
2021/12/03 03:56:33;;;;;;;7.40;6.70;;;2.20;63.30;;;;;;4978505;28;20265;-90
2021/12/03 03:58:59;;;;;;;8.05;7.35;;;2.20;63.70;;;;;;4977003;28;20432;-91
2021/12/03 04:01:24;;;;;;;8.00;7.40;;;2.20;63.00;;;;;;4978806;28;20730;-90
2021/12/03 04:03:50;;;;;;;7.50;6.90;;;2.20;63.20;;;;;;4978333;28;20178;-90
2021/12/03 04:06:18;;;;;;;8.93;7.87;;;2.20;64.10;;;;;;4978155;28;20277;-91
2021/12/03 04:08:46;;;;;;;7.30;6.60;;;2.20;63.70;;;;;;4978281;28;20654;-90
2021/12/03 04:11:14;;;;;;;7.67;7.07;;;2.20;62.50;;;;;;4977877;28;20430;-90
2021/12/03 04:13:40;;;;;;;8.50;7.80;;;2.20;63.10;;;;;;4977710;28;20410;-90
2021/12/03 04:16:06;;;;;;;7.97;7.27;;;2.20;63.50;;;;;;4978019;28;20934;-90
2021/12/03 04:18:31;;;;;;;8.40;7.70;;;2.20;62.60;;;;;;4978717;28;20970;-91
2021/12/03 04:20:58;;;;;;;8.00;7.20;;;2.20;62.90;;;;;;4977824;28;20443;-91
2021/12/03 04:23:24;;;;;;;7.77;6.97;;;2.20;62.90;;;;;;4977624;28;20551;-91
2021/12/03 04:25:51;;;;;;;8.97;7.57;;;2.20;63.20;;;;;;4978327;28;20458;-92
2021/12/03 04:28:18;;;;;;;7.80;7.00;;;2.20;62.60;;;;;;4993805;28;20498;-92
2021/12/03 04:30:46;;;;;;;7.80;7.15;;;2.20;62.90;;;;;;4977537;28;20433;-91
2021/12/03 04:33:12;;;;;;;7.45;6.85;;;2.20;63.20;;;;;;4979716;28;20171;-90
2021/12/03 04:35:38;;;;;;;8.47;7.67;;;2.20;63.70;;;;;;4983890;28;20198;-90
2021/12/03 04:38:04;;;;;;;8.73;7.93;;;2.20;65.30;;;;;;4983501;28;20425;-90
2021/12/03 04:40:32;;;;;;;8.67;7.93;;;2.20;64.10;;;;;;4982973;28;20426;-90
2021/12/03 04:42:57;;;;;;;8.27;7.57;;;2.20;63.60;;;;;;4982721;28;20428;-91
2021/12/03 04:45:25;;;;;;;8.77;8.07;;;2.20;63.90;;;;;;4981519;28;20477;-90
2021/12/03 04:47:54;;;;;;;7.60;7.10;;;2.20;62.00;;;;;;4977193;28;20266;-91
2021/12/03 04:50:31;;;;;;;10.00;9.10;;;2.20;62.50;;;;;;4975637;28;20429;-90
2021/12/03 04:52:57;;;;;;;8.13;7.53;;;2.20;62.40;;;;;;4976947;28;20771;-91
2021/12/03 04:55:24;;;;;;;8.57;7.87;;;2.20;62.90;;;;;;4977277;28;20414;-92
2021/12/03 04:58:28;;;;;;;9.33;7.77;;;2.30;62.70;;;;;;4978399;28;20425;-91
2021/12/03 05:00:56;;;;;;;10.17;8.73;;;2.30;62.20;;;;;;4979590;28;20398;-89
2021/12/03 05:03:24;;;;;;;9.10;8.30;;;2.30;62.40;;;;;;4977403;28;20414;-91
2021/12/03 05:05:55;;;;;;;7.93;7.33;;;2.30;62.40;;;;;;4975580;28;20457;-91
2021/12/03 05:08:26;;;;;;;9.53;8.73;;;2.30;62.20;;;;;;4976644;28;20963;-91
2021/12/03 05:10:53;;;;;;;7.93;7.33;;;2.30;62.10;;;;;;4975029;28;20414;-92
2021/12/03 05:13:21;;;;;;;9.97;9.07;;;2.20;61.80;;;;;;4973550;28;20802;-91
2021/12/03 05:15:47;;;;;;;8.37;7.67;;;2.20;62.50;;;;;;4975899;28;20426;-94
2021/12/03 05:18:16;;;;;;;7.40;6.90;;;2.20;61.60;;;;;;4975271;28;20553;-92
2021/12/03 05:20:43;;;;;;;8.10;7.30;;;2.20;61.70;;;;;;4988751;28;20528;-92
2021/12/03 05:23:09;;;;;;;9.20;8.40;;;2.20;61.90;;;;;;4973377;28;20428;-92
2021/12/03 05:25:36;;;;;;;9.00;8.20;;;2.20;61.50;;;;;;4974314;28;20541;-92
2021/12/03 05:28:02;;;;;;;7.80;7.10;;;2.20;62.10;;;;;;4973251;28;20508;-92
2021/12/03 05:30:29;;;;;;;7.90;7.20;;;2.20;62.50;;;;;;4974695;28;20430;-88
2021/12/03 05:32:54;;;;;;;7.73;7.20;;;2.20;61.80;;;;;;4971977;28;20418;-89
2021/12/03 05:35:21;;;;;;;10.13;7.80;;;2.20;61.10;;;;;;4971800;28;20948;-88
2021/12/03 05:37:47;;;;;;;8.53;7.73;;;2.20;61.60;;;;;;4971857;28;20197;-88
2021/12/03 05:40:14;;;;;;;8.93;8.23;;;2.20;60.30;;;;;;4973365;28;20775;-87
2021/12/03 05:42:40;;;;;;;8.40;7.70;;;2.20;60.10;;;;;;4972276;28;20429;-86
2021/12/03 05:45:08;;;;;;;8.77;8.07;;;2.20;61.60;;;;;;4972126;28;20475;-88
2021/12/03 05:47:34;;;;;;;7.82;7.22;;;2.20;60.90;;;;;;4972518;28;20175;-84
2021/12/03 05:49:59;;;;;;;8.57;7.73;;;2.30;59.30;;;;;;4972126;28;20265;-87
2021/12/03 05:52:25;;;;;;;7.97;7.37;;;2.20;60.10;;;;;;4972149;28;20241;-87
2021/12/03 05:54:51;;;;;;;7.93;7.20;;;2.20;60.40;;;;;;4972211;28;20174;-88
2021/12/03 05:57:17;;;;;;;8.70;8.07;;;2.20;60.70;;;;;;4972008;28;20662;-87
2021/12/03 05:59:43;;;;;;;10.20;9.30;;;2.20;60.10;;;;;;4972010;28;20472;-87
2021/12/03 06:02:08;;;;;;;7.73;7.13;;;2.20;60.10;;;;;;4972697;28;20179;-88
2021/12/03 06:04:34;;;;;;;8.13;7.57;;;2.20;60.60;;;;;;4972650;28;20182;-89
2021/12/03 06:07:00;;;;;;;9.17;8.37;;;2.20;60.10;;;;;;4972484;28;20238;-88
2021/12/03 06:09:26;;;;;;;10.23;9.30;;;2.20;60.70;;;;;;4972742;28;20175;-88
2021/12/03 06:11:51;;;;;;;7.87;7.27;;;2.30;59.70;;;;;;4972280;28;20505;-88
2021/12/03 06:14:17;;;;;;;8.70;7.93;;;2.30;59.60;;;;;;4973038;28;20273;-86
2021/12/03 06:16:43;;;;;;;9.07;8.27;;;2.30;60.10;;;;;;4971908;28;20187;-87
2021/12/03 06:19:08;;;;;;;10.13;8.33;;;2.30;59.40;;;;;;4972483;28;20183;-86
2021/12/03 06:21:34;;;;;;;8.20;7.50;;;2.30;59.50;;;;;;4972310;28;20202;-87
2021/12/03 06:24:00;;;;;;;7.97;7.37;;;2.20;58.30;;;;;;4972657;28;20198;-86
2021/12/03 06:26:25;;;;;;;9.30;8.50;;;2.20;59.40;;;;;;4971897;28;20195;-86
2021/12/03 06:28:51;;;;;;;7.77;7.13;;;2.30;58.70;;;;;;4972159;28;20608;-86
2021/12/03 06:31:17;;;;;;;8.53;7.90;;;2.20;57.40;;;;;;4972250;28;20209;-86
2021/12/03 06:33:43;;;;;;;8.87;8.17;;;2.20;56.70;;;;;;4972132;28;20453;-86
2021/12/03 06:36:09;;;;;;;9.13;8.43;;;2.10;58.00;;;;;;4972476;28;20171;-86
2021/12/03 06:38:38;;;;;;;9.10;8.50;;;2.10;58.60;;;;;;4972425;28;20425;-85
2021/12/03 06:41:05;;;;;;;8.80;8.10;;;2.20;58.00;;;;;;4972212;28;20202;-85
2021/12/03 06:43:31;;;;;;;8.97;8.03;;;2.10;56.60;;;;;;4972827;28;20423;-87
2021/12/03 06:45:57;;;;;;;8.10;7.50;;;2.10;57.10;;;;;;4973321;28;20454;-87
2021/12/03 06:48:23;;;;;;;8.60;8.00;;;2.10;56.40;;;;;;4972405;28;20452;-86
2021/12/03 06:50:51;;;;;;;8.60;7.90;;;2.00;56.10;;;;;;4972256;28;20257;-87
2021/12/03 06:53:21;;;;;;;8.60;7.90;;;2.00;56.80;;;;;;4972266;28;20441;-86
2021/12/03 06:55:48;;;;;;;9.47;8.10;;;2.00;57.30;;;;;;4972521;28;20488;-86
2021/12/03 06:58:16;;;;;;;8.40;7.68;;;1.90;57.60;;;;;;4972486;28;20418;-85
2021/12/03 07:00:43;;;;;;;8.93;8.13;;;1.80;57.60;;;;;;4973826;28;20233;-86
2021/12/03 07:03:09;;;;;;;9.50;8.70;;;1.90;57.50;;;;;;4972753;28;20423;-88
2021/12/03 07:05:36;;;;;;;7.97;7.37;;;1.80;57.60;;;;;;4972608;28;20482;-87
2021/12/03 07:08:02;;;;;;;9.40;8.60;;;1.90;58.10;;;;;;4972878;28;20206;-86
2021/12/03 07:10:28;;;;;;;9.17;8.47;;;1.90;57.20;;;;;;4973043;28;20410;-86
2021/12/03 07:12:54;;;;;;;9.00;8.40;;;1.80;58.20;;;;;;4972452;28;20417;-87
2021/12/03 07:15:19;;;;;;;10.80;8.17;;;1.80;57.60;;;;;;4972486;28;20430;-86
2021/12/03 07:17:49;;;;;;;9.50;8.80;;;1.80;58.20;;;;;;4972188;28;20192;-87
2021/12/03 07:20:16;;;;;;;8.93;8.30;;;1.80;58.10;;;;;;4972459;28;20183;-87
2021/12/03 07:22:42;;;;;;;8.05;7.43;;;1.70;57.20;;;;;;4972959;28;20417;-84
2021/12/03 07:25:08;;;;;;;7.77;7.17;;;1.70;57.30;;;;;;4973172;28;20205;-87
2021/12/03 07:27:34;;;;;;;8.30;7.60;;;1.70;57.50;;;;;;4972799;28;20214;-84
2021/12/03 07:30:00;;;;;;;8.77;7.97;;;1.80;56.90;;;;;;4972919;28;20163;-90
2021/12/03 07:32:27;;;;;;;6.97;6.47;;;1.70;56.20;;;;;;4975899;28;20505;-91
2021/12/03 07:34:53;;;;;;;9.05;8.27;;;1.70;57.10;;;;;;4977921;28;20175;-89
2021/12/03 07:37:19;;;;;;;8.30;7.50;;;1.70;56.50;;;;;;4986031;28;20175;-91
2021/12/03 07:39:44;;;;;;;8.17;7.47;;;1.70;56.50;;;;;;4977181;28;20182;-92
2021/12/03 07:42:10;;;;;;;7.57;6.80;;;1.70;57.20;;;;;;4977116;28;20680;-93
2021/12/03 07:44:36;;;;;;;7.90;7.30;;;1.70;57.60;;;;;;4976412;28;20183;-93
2021/12/03 07:47:02;;;;;;;7.93;7.07;;;1.70;56.80;;;;;;4976666;28;20470;-92
2021/12/03 07:49:28;;;;;;;7.83;7.03;;;1.70;57.20;;;;;;4976899;28;20234;-91
2021/12/03 07:51:54;;;;;;;7.97;7.17;;;1.60;56.70;;;;;;4979247;28;20453;-91
2021/12/03 07:54:21;;;;;;;8.43;7.70;;;1.60;57.10;;;;;;4980084;28;20179;-92
2021/12/03 07:56:46;;;;;;;7.78;6.95;;;1.70;56.50;;;;;;4980429;28;20186;-92
2021/12/03 07:59:12;;;;;;;7.50;6.97;;;1.60;56.80;;;;;;4979024;28;20220;-87
2021/12/03 08:01:42;;;;;;;7.05;6.50;;;1.60;57.20;;;;;;4978971;28;20432;-91
2021/12/03 08:04:22;;;;;;;7.75;7.15;;;1.70;56.60;;;;;;4963455;28;20239;-88
2021/12/03 08:06:52;;;;;;;8.75;8.07;;;1.70;56.50;;;;;;4978000;28;20194;-89
2021/12/03 08:09:18;;;;;;;7.93;7.20;;;1.70;56.50;;;;;;4979624;28;20233;-93
2021/12/03 08:11:44;;;;;;;9.80;8.60;;;1.70;56.50;;;;;;4981893;28;20776;-92
2021/12/03 08:17:32;;;;;;;7.80;7.13;;;1.70;55.80;;;;;;4986203;28;20417;-92
2021/12/03 08:19:57;;;;;;;8.30;7.53;;;1.70;56.20;;;;;;4981680;28;20422;-91
2021/12/03 08:25:46;;;;;;;8.60;7.93;;;1.80;55.80;;;;;;4980326;28;20219;-93
2021/12/03 08:28:11;;;;;;;8.30;7.57;;;1.80;56.00;;;;;;4980910;28;20524;-91
2021/12/03 08:30:38;;;;;;;8.07;7.30;;;1.80;55.90;;;;;;4980998;28;20171;-96
2021/12/03 08:33:03;;;;;;;6.63;6.13;;;1.80;55.90;;;;;;4985037;28;20181;-93
2021/12/03 08:35:30;;;;;;;8.97;7.67;;;1.80;54.20;;;;;;4978842;28;20422;-93
2021/12/03 08:37:56;;;;;;;10.40;7.97;;;1.80;54.80;;;;;;4979551;28;20187;-92
2021/12/03 08:40:23;;;;;;;9.50;7.53;;;1.90;54.50;;;;;;4979941;28;20197;-91
2021/12/03 08:42:49;;;;;;;8.40;7.60;;;1.90;55.20;;;;;;4979293;28;20234;-93
2021/12/03 08:45:17;;;;;;;10.47;8.87;;;1.90;55.70;;;;;;4975280;28;20485;-89
2021/12/03 08:47:46;;;;;;;8.00;7.35;;;1.90;54.80;;;;;;4975150;28;20418;-88
2021/12/03 08:50:15;;;;;;;7.87;7.10;;;1.90;55.20;;;;;;4974125;28;20554;-87
2021/12/03 08:55:19;;;;;;;8.33;7.63;;;2.00;55.90;;;;;;4975932;28;20925;-86
2021/12/03 08:57:44;;;;;;;9.00;7.83;;;2.00;55.30;;;;;;4976079;28;20426;-87
2021/12/03 09:00:17;;;;;;;7.53;6.93;;;2.00;53.40;;;;;;4977807;28;20171;-87
2021/12/03 09:02:43;;;;;;;7.17;6.47;;;2.10;53.70;;;;;;4980619;28;20254;-85
2021/12/03 09:05:10;;;;;;;9.00;8.10;;;2.20;54.70;;;;;;4983583;28;20422;-85
2021/12/03 09:07:36;;;;;;;7.00;5.53;;;2.30;54.30;;;;;;4974080;28;20470;-85
2021/12/03 09:10:05;;;;;;;9.37;5.57;;;2.30;53.20;;;;;;4974081;28;20418;-85
2021/12/03 09:12:31;;;;;;;8.68;6.15;;;2.40;54.00;;;;;;4974170;28;20419;-85
2021/12/03 09:15:04;;;;;;;5.07;4.63;;;2.40;52.30;;;;;;4974162;28;20182;-85
2021/12/03 09:22:43;;;;;;;4.60;4.27;;;2.40;52.60;;;;;;4974812;28;20414;-84
2021/12/03 09:25:12;;;;;;;7.80;4.60;;;2.60;51.50;;;;;;4973899;28;20438;-83
2021/12/03 09:27:37;;;;;;;4.43;4.03;;;2.60;50.60;;;;;;4973510;28;20194;-84
2021/12/03 09:30:08;;;;;;;3.90;3.60;;;2.70;50.70;;;;;;4973318;28;20175;-84
2021/12/03 09:32:35;;;;;;;3.73;3.43;;;2.70;50.10;;;;;;4973296;28;20175;-83
2021/12/03 09:35:02;;;;;;;5.68;3.90;;;2.60;50.30;;;;;;4973070;28;20414;-84
2021/12/03 09:37:28;;;;;;;6.03;5.27;;;2.60;49.70;;;;;;4973725;28;20178;-83
2021/12/03 09:39:54;;;;;;;4.47;4.07;;;2.60;49.30;;;;;;4973362;28;20422;-83
2021/12/03 09:42:21;;;;;;;3.90;3.60;;;2.70;49.70;;;;;;4973811;28;20188;-83
2021/12/03 09:44:52;;;;;;;4.57;3.90;;;2.80;50.40;;;;;;4973809;28;20418;-85
2021/12/03 09:47:19;;;;;;;5.73;5.23;;;2.80;51.20;;;;;;4973775;28;20430;-86
2021/12/03 09:49:49;;;;;;;6.53;4.07;;;2.80;50.50;;;;;;4973837;28;20422;-86
2021/12/03 09:54:44;;;;;;;5.33;4.80;;;2.90;50.80;;;;;;4975060;28;20431;-86
2021/12/03 09:57:27;;;;;;;4.83;4.33;;;3.00;49.40;;;;;;4970557;28;20431;-83
2021/12/03 10:13:42;;;;;;;5.13;4.10;;;3.10;48.10;;;;;;4976940;28;20426;-91
2021/12/03 10:16:37;;;;;;;4.60;4.30;;;3.10;48.10;;;;;;4975674;28;20897;-91
2021/12/03 10:38:55;;;;;;;4.23;3.83;;;3.00;49.30;;;;;;4979410;28;20408;-93
2021/12/03 10:51:49;;;;;;;4.40;4.10;;;3.10;49.30;;;;;;4976193;28;20406;-88
2021/12/03 11:00:38;;;;;;;4.53;4.23;;;3.20;46.80;;;;;;4976096;28;20414;-86
2021/12/03 11:28:11;;;;;;;5.70;4.80;;;3.40;47.40;;;;;;4976591;28;20508;-87
2021/12/03 12:33:50;;;;;;;4.23;3.43;;;3.60;46.10;;;;;;4975260;28;20418;-88
2021/12/03 12:44:52;;;;;;;3.73;3.43;;;3.80;46.10;;;;;;4994167;28;20412;-85
2021/12/03 13:59:49;;;;;;;5.83;2.70;;;3.90;44.00;;;;;;4960921;28;20425;-88
2021/12/03 14:07:36;;;;;;;5.60;2.73;;;3.90;44.50;;;;;;4977357;28;20877;-88
2021/12/03 14:40:42;;;;;;;4.10;2.67;;;3.90;43.70;;;;;;4982239;28;20426;-93
2021/12/03 14:54:37;;;;;;;4.87;3.20;;;3.90;44.40;;;;;;4979513;28;20390;-93
2021/12/03 14:57:10;;;;;;;6.30;3.70;;;3.80;44.80;;;;;;4977616;28;20504;-93
2021/12/03 14:59:38;;;;;;;4.03;3.63;;;3.90;44.20;;;;;;4978545;28;20513;-93
2021/12/03 15:05:01;;;;;;;3.83;3.20;;;3.80;44.20;;;;;;4980555;28;20417;-93
2021/12/03 15:07:35;;;;;;;3.50;3.10;;;3.80;45.10;;;;;;4977930;28;20465;-94
2021/12/03 15:10:05;;;;;;;3.83;2.80;;;3.70;45.60;;;;;;4977236;28;20921;-93
2021/12/03 15:24:54;;;;;;;4.73;3.33;;;3.60;47.70;;;;;;4978188;28;20418;-92
2021/12/03 16:07:47;;;;;;;4.77;3.43;;;3.90;47.50;;;;;;4977801;28;20464;-88
2021/12/03 16:09:48;;;;;;;3.60;3.30;;;3.90;47.10;;;;;;4974469;28;20488;-89
2021/12/03 16:45:55;;;;;;;7.00;4.37;;;3.80;47.30;;;;;;4978088;28;20500;-89
2021/12/03 16:53:37;;;;;;;9.27;4.80;;;3.70;47.70;;;;;;4977564;28;20426;-85
2021/12/03 16:56:14;;;;;;;6.90;4.73;;;3.70;47.20;;;;;;4974314;28;20418;-85
2021/12/03 16:58:41;;;;;;;5.83;3.83;;;3.70;48.40;;;;;;4973497;28;20444;-85
2021/12/03 17:01:14;;;;;;;6.00;4.10;;;3.60;48.40;;;;;;4974211;28;20414;-85
2021/12/03 17:03:49;;;;;;;9.87;4.03;;;3.70;48.50;;;;;;4973814;28;20833;-85
2021/12/03 17:14:45;;;;;;;4.53;4.10;;;3.60;47.90;;;;;;4975566;28;20432;-85
2021/12/03 17:45:05;;;;;;;5.60;3.67;;;3.70;47.60;;;;;;4977059;28;20445;-89
2021/12/03 17:50:24;;;;;;;4.40;3.83;;;3.60;47.10;;;;;;4977231;28;20430;-89
2021/12/03 17:58:29;;;;;;;7.77;4.00;;;3.60;47.10;;;;;;4976076;28;20473;-90
2021/12/03 18:01:10;;;;;;;4.00;3.67;;;3.50;47.10;;;;;;4975168;28;20828;-89
2021/12/03 18:46:53;;;;;;;2.80;2.60;;;3.60;43.40;;;;;;4974352;28;20515;-88
2021/12/03 18:49:32;;;;;;;4.63;3.83;;;3.50;42.20;;;;;;4974035;28;20422;-88
2021/12/03 18:57:22;;;;;;;3.93;3.67;;;3.60;43.10;;;;;;4974777;28;20421;-89
2021/12/03 18:59:56;;;;;;;3.87;3.57;;;3.60;42.50;;;;;;4974400;28;20434;-90
2021/12/03 19:02:24;;;;;;;4.73;4.30;;;3.60;42.50;;;;;;4978667;28;20426;-91
2021/12/03 19:04:58;;;;;;;4.10;3.80;;;3.60;42.90;;;;;;4976634;28;20492;-90
2021/12/03 19:07:45;;;;;;;5.40;3.90;;;3.50;42.50;;;;;;4991691;28;20973;-91
2021/12/03 19:10:21;;;;;;;9.93;6.27;;;3.60;42.80;;;;;;4974494;28;20406;-90
2021/12/03 19:12:57;;;;;;;5.10;4.60;;;3.60;43.40;;;;;;4974763;28;20496;-91
2021/12/03 19:15:25;;;;;;;4.70;4.00;;;3.60;42.70;;;;;;4974244;28;20485;-90
2021/12/03 19:17:51;;;;;;;4.90;4.40;;;3.60;42.90;;;;;;4974338;28;20414;-91
2021/12/03 19:20:21;;;;;;;4.40;4.00;;;3.60;42.50;;;;;;4974661;28;20413;-90
2021/12/03 19:22:51;;;;;;;9.07;5.23;;;3.50;42.90;;;;;;4975309;28;20501;-90
2021/12/03 19:25:18;;;;;;;5.13;4.40;;;3.60;43.00;;;;;;4973714;28;20426;-90
2021/12/03 19:27:44;;;;;;;4.37;3.97;;;3.50;42.70;;;;;;4973574;28;20450;-90
2021/12/03 19:30:10;;;;;;;4.20;3.80;;;3.60;43.00;;;;;;4974461;28;20922;-91
2021/12/03 19:32:36;;;;;;;5.00;4.50;;;3.50;42.90;;;;;;4974652;28;20607;-91
2021/12/03 19:35:03;;;;;;;4.03;3.70;;;3.60;42.20;;;;;;4974220;28;20504;-91
2021/12/03 19:37:29;;;;;;;4.70;4.30;;;3.60;43.30;;;;;;4974235;28;20505;-90
2021/12/03 19:40:02;;;;;;;6.10;4.30;;;3.60;42.70;;;;;;4972559;28;20441;-88
2021/12/03 19:42:54;;;;;;;4.63;4.10;;;3.60;43.30;;;;;;4974011;28;20436;-88
2021/12/03 19:45:18;;;;;;;5.30;4.80;;;3.60;43.70;;;;;;4975088;28;20434;-88
2021/12/03 19:52:52;;;;;;;4.83;4.20;;;3.70;42.40;;;;;;4979479;28;20402;-89
2021/12/03 19:55:18;;;;;;;4.33;3.93;;;3.70;41.60;;;;;;4978446;28;20940;-91
2021/12/03 19:57:48;;;;;;;4.20;3.90;;;3.60;42.40;;;;;;4977505;28;20421;-91
2021/12/03 20:03:36;;;;;;;4.53;4.10;;;3.70;43.10;;;;;;4979696;28;20441;-86
2021/12/03 20:06:04;;;;;;;4.47;4.07;;;3.70;43.60;;;;;;4975059;28;20874;-87
2021/12/03 20:08:30;;;;;;;5.33;4.83;;;3.70;42.20;;;;;;4974964;28;20421;-85
2021/12/03 20:11:00;;;;;;;5.20;4.73;;;3.70;42.00;;;;;;4974707;28;20445;-86
2021/12/03 20:13:27;;;;;;;7.77;5.40;;;3.70;41.50;;;;;;4975308;28;20417;-86
2021/12/03 20:18:37;;;;;;;5.60;5.10;;;3.80;43.20;;;;;;4976498;28;20790;-86
2021/12/03 20:21:05;;;;;;;5.63;5.13;;;3.80;42.90;;;;;;4974043;28;20445;-85
2021/12/03 20:23:48;;;;;;;6.50;4.87;;;3.80;43.30;;;;;;4974562;28;20484;-85
2021/12/03 20:26:29;;;;;;;6.00;5.10;;;3.90;44.20;;;;;;4982252;28;20519;-87
2021/12/03 20:31:58;;;;;;;4.93;4.47;;;3.80;43.40;;;;;;4975868;28;20418;-88
2021/12/03 20:37:12;;;;;;;5.20;4.80;;;3.80;43.30;;;;;;4979503;28;20425;-91
2021/12/03 20:39:42;;;;;;;6.10;5.33;;;3.80;42.30;;;;;;4978634;28;20450;-92
2021/12/03 20:42:29;;;;;;;6.40;5.70;;;3.80;42.30;;;;;;4977546;28;20418;-91
2021/12/03 20:45:21;;;;;;;5.17;4.77;;;3.80;41.90;;;;;;4977534;28;20441;-92
2021/12/03 21:09:25;;;;;;;5.33;4.87;;;3.70;42.70;;;;;;4976374;28;20445;-90
2021/12/03 21:11:56;;;;;;;4.90;4.40;;;3.70;42.30;;;;;;4975410;28;20981;-89
2021/12/03 21:14:29;;;;;;;5.10;4.67;;;3.80;43.00;;;;;;4974437;28;20802;-90
2021/12/03 21:21:56;;;;;;;5.30;4.57;;;3.80;42.60;;;;;;4973760;28;20193;-90
2021/12/03 21:24:22;;;;;;;4.80;4.40;;;3.80;42.70;;;;;;4973549;28;20925;-89
2021/12/03 21:26:48;;;;;;;5.37;4.70;;;3.80;42.60;;;;;;4974363;28;20512;-90
2021/12/03 21:29:41;;;;;;;5.57;5.07;;;3.80;43.20;;;;;;4974364;28;20227;-90
2021/12/03 21:40:23;;;;;;;4.80;4.50;;;3.70;45.70;;;;;;4956667;29;20410;-89
2021/12/03 21:42:48;;;;;;;4.50;4.20;;;3.60;48.10;;;;;;4955069;29;20514;-89
2021/12/03 21:45:15;;;;;;;3.80;3.53;;;3.60;49.10;;;;;;4955083;29;20466;-89